Time;durP1;ratioP1;P1;durP2;ratioP2;P2;SDS_P1;SDS_P2;PMS_P1;PMS_P2;Temp;Humidity;BMP_temperature;BMP_pressure;BME280_temperature;BME280_humidity;BME280_pressure;Samples;Min_cycle;Max_cycle;Signal;HPM_P1;HPM_P2
2023/11/08 00:01:07;;;;;;;3.65;1.75;;;;;;;6.92;100.00;98129.59;6098072;19;20006;-74
2023/11/08 00:03:07;;;;;;;2.53;1.60;;;;;;;6.91;100.00;98129.97;6099959;19;20007;-74
2023/11/08 00:05:08;;;;;;;4.65;2.25;;;;;;;6.97;100.00;98131.28;6098704;19;20364;-74
2023/11/08 00:07:09;;;;;;;9.02;1.90;;;;;;;6.89;100.00;98124.03;6100282;19;20006;-74
2023/11/08 00:09:09;;;;;;;4.70;1.80;;;;;;;6.90;100.00;98131.94;6100288;19;20007;-74
2023/11/08 00:11:09;;;;;;;4.57;1.60;;;;;;;6.91;100.00;98119.75;6100430;19;20708;-74
2023/11/08 00:13:10;;;;;;;4.10;1.83;;;;;;;6.89;100.00;98121.28;6098692;19;20467;-74
2023/11/08 00:15:11;;;;;;;4.20;1.70;;;;;;;6.86;100.00;98122.78;6098707;19;19998;-74
2023/11/08 00:17:13;;;;;;;3.83;1.40;;;;;;;6.79;100.00;98119.94;6099790;19;20082;-74
2023/11/08 00:19:16;;;;;;;3.28;1.70;;;;;;;6.75;100.00;98122.59;6099547;19;20034;-74
2023/11/08 00:21:16;;;;;;;;;;;;;;;6.79;100.00;98124.63;6101092;19;20340;-74
2023/11/08 00:23:17;;;;;;;2.67;1.40;;;;;;;6.73;100.00;98132.34;6098430;19;19919;-74
2023/11/08 00:25:17;;;;;;;7.22;1.58;;;;;;;6.66;100.00;98126.72;6098745;19;20026;-74
2023/11/08 00:27:17;;;;;;;4.22;1.48;;;;;;;6.63;100.00;98133.72;6099740;19;20010;-74
2023/11/08 00:29:18;;;;;;;3.17;1.35;;;;;;;6.65;100.00;98139.66;6098471;19;20029;-74
2023/11/08 00:31:20;;;;;;;3.20;1.38;;;;;;;6.65;100.00;98139.66;6099599;19;20014;-74
2023/11/08 00:33:20;;;;;;;5.47;1.80;;;;;;;6.66;100.00;98140.44;6099441;19;20013;-74
2023/11/08 00:35:20;;;;;;;5.20;1.85;;;;;;;6.68;100.00;98144.44;6097401;19;20010;-74
2023/11/08 00:37:21;;;;;;;5.30;1.90;;;;;;;6.69;100.00;98145.22;6098925;19;20014;-74
2023/11/08 00:39:22;;;;;;;3.63;2.00;;;;;;;6.71;100.00;98142.94;6098419;19;20011;-74
2023/11/08 00:41:22;;;;;;;6.43;2.30;;;;;;;6.69;100.00;98143.25;6098934;19;20471;-74
2023/11/08 00:43:22;;;;;;;3.70;1.92;;;;;;;6.65;100.00;98150.66;6098305;19;20495;-74
2023/11/08 00:45:23;;;;;;;5.35;1.77;;;;;;;6.69;100.00;98142.47;6098493;19;20007;-74
2023/11/08 00:47:23;;;;;;;5.20;1.73;;;;;;;6.69;100.00;98157.00;6099118;19;20006;-74
2023/11/08 00:49:24;;;;;;;4.78;1.77;;;;;;;6.68;100.00;98152.66;6103766;19;20475;-74
2023/11/08 00:51:24;;;;;;;3.53;1.58;;;;;;;6.66;100.00;98152.25;6104672;19;20015;-74
2023/11/08 00:53:25;;;;;;;4.03;1.55;;;;;;;6.66;100.00;98152.25;6104764;19;20002;-74
2023/11/08 00:55:26;;;;;;;2.72;1.30;;;;;;;6.69;100.00;98154.25;6102657;19;20015;-74
2023/11/08 00:57:26;;;;;;;2.97;1.42;;;;;;;6.66;100.00;98155.00;6103616;19;20014;-74
2023/11/08 00:59:26;;;;;;;3.78;1.50;;;;;;;6.64;100.00;98154.56;6104877;19;20011;-74
2023/11/08 01:01:30;;;;;;;1.65;1.20;;;;;;;6.61;100.00;98154.47;6104894;19;20348;-74
2023/11/08 01:03:32;;;;;;;2.60;1.30;;;;;;;6.63;100.00;98149.44;6105168;19;20014;-74
2023/11/08 01:05:32;;;;;;;3.50;1.27;;;;;;;6.61;100.00;98144.28;6102668;19;20009;-74
2023/11/08 01:07:32;;;;;;;3.00;1.35;;;;;;;6.63;100.00;98152.97;6104549;19;20015;-74
2023/11/08 01:09:33;;;;;;;3.00;1.30;;;;;;;6.61;100.00;98144.28;6103981;19;20017;-74
2023/11/08 01:11:33;;;;;;;2.72;1.10;;;;;;;6.61;100.00;98147.00;6103144;19;20751;-75
2023/11/08 01:13:36;;;;;;;5.35;1.58;;;;;;;6.63;100.00;98139.22;6103944;19;20371;-74
2023/11/08 01:15:36;;;;;;;1.98;1.00;;;;;;;6.68;100.00;98144.44;6101302;19;20011;-74
2023/11/08 01:17:37;;;;;;;1.30;1.00;;;;;;;6.73;100.00;98149.66;6103603;19;20079;-74
2023/11/08 01:19:37;;;;;;;2.65;1.02;;;;;;;6.74;100.00;98145.75;6103673;19;20013;-74
2023/11/08 01:21:37;;;;;;;2.47;1.02;;;;;;;6.74;100.00;98144.94;6103993;19;20475;-74
2023/11/08 01:23:38;;;;;;;0.98;0.95;;;;;;;6.67;100.00;98145.59;6103156;19;20021;-74
2023/11/08 01:25:39;;;;;;;1.70;0.90;;;;;;;6.65;100.00;98156.16;6102125;19;20007;-74
2023/11/08 01:27:39;;;;;;;1.98;1.00;;;;;;;6.61;100.00;98146.22;6096025;19;20002;-74
2023/11/08 01:29:39;;;;;;;1.52;1.00;;;;;;;6.57;100.00;98139.88;6102008;19;20256;-74
2023/11/08 01:31:40;;;;;;;1.58;1.00;;;;;;;6.57;100.00;98145.38;6103874;19;20356;-74
2023/11/08 01:33:41;;;;;;;1.42;1.00;;;;;;;6.54;100.00;98149.63;6102959;19;20031;-74
2023/11/08 01:35:43;;;;;;;2.85;1.20;;;;;;;6.57;100.00;98143.41;6102155;19;20010;-74
2023/11/08 01:37:43;;;;;;;1.52;1.40;;;;;;;6.56;100.00;98146.53;6103316;19;20010;-74
2023/11/08 01:39:43;;;;;;;1.60;0.90;;;;;;;6.55;100.00;98145.72;6103283;19;20021;-74
2023/11/08 01:41:50;;;;;;;3.28;1.00;;;;;;;6.50;100.00;98143.25;6103237;19;20385;-74
2023/11/08 01:43:51;;;;;;;1.98;1.30;;;;;;;6.53;100.00;98144.47;6102570;19;20011;-74
2023/11/08 01:46:03;;;;;;;1.63;1.02;;;;;;;6.52;100.00;98137.38;6102492;19;20023;-74
2023/11/08 01:48:04;;;;;;;3.60;1.20;;;;;;;6.52;100.00;98142.88;6101688;19;20402;-74
2023/11/08 01:50:06;;;;;;;6.53;1.17;;;;;;;6.52;100.00;98140.13;6102266;19;20479;-74
2023/11/08 01:52:10;;;;;;;1.98;1.08;;;;;;;6.51;100.00;98144.84;6102393;19;20347;-74
2023/11/08 01:54:11;;;;;;;2.38;0.90;;;;;;;6.46;100.00;98139.63;6102458;19;20028;-74
2023/11/08 01:56:12;;;;;;;1.50;1.00;;;;;;;6.42;100.00;98141.50;6100476;19;20572;-74
2023/11/08 01:58:12;;;;;;;2.92;0.95;;;;;;;6.38;100.00;98129.66;6102992;19;20003;-74
2023/11/08 02:00:14;;;;;;;1.35;1.08;;;;;;;6.39;100.00;98132.03;6100699;19;19998;-74
2023/11/08 02:02:14;;;;;;;1.42;1.30;;;;;;;6.41;100.00;98128.91;6101544;19;20010;-74
2023/11/08 02:04:17;;;;;;;1.52;1.30;;;;;;;6.41;100.00;98132.47;6102273;19;20006;-74
2023/11/08 02:06:18;;;;;;;3.55;1.40;;;;;;;6.43;100.00;98126.59;6100886;19;20058;-74
2023/11/08 02:08:19;;;;;;;2.72;1.30;;;;;;;6.42;100.00;98127.75;6101994;19;20451;-74
2023/11/08 02:10:19;;;;;;;3.78;1.33;;;;;;;6.43;100.00;98126.59;6102318;19;20011;-74
2023/11/08 02:12:20;;;;;;;3.13;1.30;;;;;;;6.38;100.00;98124.94;6103115;19;20037;-74
2023/11/08 02:14:21;;;;;;;1.45;0.90;;;;;;;6.36;100.00;98124.47;6101496;19;27167;-74
2023/11/08 02:16:21;;;;;;;1.90;0.93;;;;;;;6.37;100.00;98128.03;6101031;19;20700;-74
2023/11/08 02:18:21;;;;;;;1.73;1.25;;;;;;;6.39;100.00;98126.53;6103291;19;20310;-74
2023/11/08 02:20:22;;;;;;;3.47;1.05;;;;;;;6.36;100.00;98121.75;6101950;19;20006;-74
2023/11/08 02:22:23;;;;;;;3.47;1.02;;;;;;;6.41;100.00;98123.41;6102337;19;20018;-74
2023/11/08 02:24:23;;;;;;;1.40;1.00;;;;;;;6.38;100.00;98116.69;6100800;19;20016;-74
2023/11/08 02:26:24;;;;;;;1.20;1.10;;;;;;;6.34;100.00;98118.56;6101381;19;20447;-74
2023/11/08 02:28:24;;;;;;;1.77;0.80;;;;;;;6.32;100.00;98117.34;6098349;19;20014;-74
2023/11/08 02:30:25;;;;;;;2.83;1.20;;;;;;;6.37;100.00;98117.84;6094330;19;20010;-74
2023/11/08 02:32:25;;;;;;;1.63;1.10;;;;;;;6.33;100.00;98107.94;6095283;19;20003;-74
2023/11/08 02:34:25;;;;;;;1.88;1.08;;;;;;;6.29;100.00;98120.78;6095041;19;20015;-74
2023/11/08 02:36:26;;;;;;;1.15;0.90;;;;;;;6.27;100.00;98112.09;6094235;19;20442;-74
2023/11/08 02:38:27;;;;;;;1.33;1.02;;;;;;;6.23;100.00;98123.03;6095650;19;20022;-74
2023/11/08 02:40:28;;;;;;;1.00;0.90;;;;;;;6.19;100.00;98117.44;6096386;19;20006;-74
2023/11/08 02:42:28;;;;;;;1.58;1.10;;;;;;;6.22;100.00;98121.44;6093089;19;20018;-74
2023/11/08 02:44:28;;;;;;;2.33;1.00;;;;;;;6.15;100.00;98119.31;6095194;19;20356;-74
2023/11/08 02:46:30;;;;;;;2.40;1.10;;;;;;;6.13;100.00;98127.13;6095502;19;20343;-74
2023/11/08 02:48:30;;;;;;;2.30;1.00;;;;;;;6.13;100.00;98126.34;6095437;19;20018;-74
2023/11/08 02:50:31;;;;;;;3.50;1.27;;;;;;;6.14;100.00;98120.47;6094433;19;20011;-74
2023/11/08 02:52:32;;;;;;;2.08;1.10;;;;;;;6.26;100.00;98119.56;6095884;19;20066;-74
2023/11/08 02:54:32;;;;;;;1.50;1.20;;;;;;;6.24;100.00;98115.59;6095903;19;20011;-74
2023/11/08 02:56:40;;;;;;;1.13;1.02;;;;;;;6.24;100.00;98110.88;6094926;19;20007;-74
2023/11/08 02:58:41;;;;;;;2.75;1.23;;;;;;;6.21;100.00;98128.09;6095225;19;20022;-74
2023/11/08 03:00:41;;;;;;;2.80;1.30;;;;;;;6.19;100.00;98108.41;6094681;19;20014;-74
2023/11/08 03:02:42;;;;;;;4.32;1.15;;;;;;;6.18;100.00;98115.06;6095520;19;20123;-74
2023/11/08 03:04:42;;;;;;;3.88;1.20;;;;;;;6.17;100.00;98117.00;6094927;19;20773;-74
2023/11/08 03:06:43;;;;;;;1.58;1.20;;;;;;;6.18;100.00;98123.28;6094178;19;20366;-74
2023/11/08 03:08:44;;;;;;;4.38;1.10;;;;;;;6.15;100.00;98124.81;6094545;19;20098;-74
2023/11/08 03:10:44;;;;;;;2.88;1.92;;;;;;;6.14;100.00;98127.91;6095354;19;20473;-74
2023/11/08 03:12:46;;;;;;;3.28;1.20;;;;;;;6.16;100.00;98131.91;6095875;19;20035;-74
2023/11/08 03:14:46;;;;;;;1.40;1.10;;;;;;;6.18;100.00;98135.06;6095536;19;20006;-74
2023/11/08 03:16:47;;;;;;;2.55;1.40;;;;;;;6.21;100.00;98133.59;6094446;19;20327;-74
2023/11/08 03:18:48;;;;;;;2.40;1.30;;;;;;;6.21;100.00;98125.34;6094688;19;20017;-74
2023/11/08 03:20:48;;;;;;;1.33;0.95;;;;;;;6.22;100.00;98126.13;6093101;19;20492;-74
2023/11/08 03:22:49;;;;;;;2.83;1.30;;;;;;;6.17;100.00;98130.72;6095374;19;20025;-74
2023/11/08 03:24:49;;;;;;;2.40;1.20;;;;;;;6.26;100.00;98127.78;6094631;19;20314;-74
2023/11/08 03:26:49;;;;;;;1.60;1.20;;;;;;;6.34;100.00;98128.75;6094742;19;20018;-74
2023/11/08 03:28:50;;;;;;;3.67;1.50;;;;;;;6.31;100.00;98129.47;6097315;19;20432;-74
2023/11/08 03:30:50;;;;;;;4.05;1.20;;;;;;;6.37;100.00;98126.09;6102401;19;20011;-74
2023/11/08 03:32:50;;;;;;;2.80;1.10;;;;;;;6.33;100.00;98125.22;6101284;19;20494;-74
2023/11/08 03:34:51;;;;;;;3.88;1.30;;;;;;;6.34;100.00;98120.50;6101625;19;20794;-74
2023/11/08 03:36:51;;;;;;;3.15;1.17;;;;;;;6.37;100.00;98123.34;6101405;19;20359;-74
2023/11/08 03:38:51;;;;;;;1.95;1.33;;;;;;;6.36;100.00;98129.97;6101428;19;20021;-74
2023/11/08 03:40:52;;;;;;;2.28;1.13;;;;;;;6.33;100.00;98113.44;6101625;19;20612;-74
2023/11/08 03:42:52;;;;;;;2.63;1.35;;;;;;;6.33;100.00;98132.66;6100420;19;20007;-74
2023/11/08 03:44:53;;;;;;;1.92;1.20;;;;;;;6.31;100.00;98144.00;6099814;19;20006;-74
2023/11/08 03:46:53;;;;;;;2.53;1.40;;;;;;;6.32;100.00;98136.56;6099329;19;20007;-74
2023/11/08 03:48:54;;;;;;;1.85;1.42;;;;;;;6.29;100.00;98135.34;6101226;19;20002;-74
2023/11/08 03:50:55;;;;;;;3.92;1.60;;;;;;;6.29;100.00;98138.09;6101077;19;20009;-74
2023/11/08 03:52:55;;;;;;;2.33;1.20;;;;;;;6.26;100.00;98132.50;6101411;19;20328;-74
2023/11/08 03:54:56;;;;;;;2.20;1.13;;;;;;;6.22;100.00;98137.13;6100310;19;20074;-74
2023/11/08 03:56:57;;;;;;;3.45;1.42;;;;;;;6.22;100.00;98139.88;6101983;19;20066;-74
2023/11/08 03:58:57;;;;;;;2.78;1.13;;;;;;;6.28;100.00;98147.47;6100637;19;20009;-74
2023/11/08 04:00:58;;;;;;;2.13;1.20;;;;;;;6.37;100.00;98147.25;6101205;19;20469;-74
2023/11/08 04:02:58;;;;;;;3.72;1.30;;;;;;;6.39;100.00;98148.50;6101636;19;19999;-74
2023/11/08 04:04:59;;;;;;;9.88;1.52;;;;;;;6.39;100.00;98147.72;6099756;19;20002;-74
2023/11/08 04:06:59;;;;;;;2.83;1.48;;;;;;;6.38;100.00;98140.63;6099183;19;20002;-74
2023/11/08 04:08:59;;;;;;;3.03;1.50;;;;;;;6.38;100.00;98146.13;6100805;19;20302;-74
2023/11/08 04:11:03;;;;;;;3.38;1.40;;;;;;;6.37;100.00;98137.09;6101018;19;20411;-74
2023/11/08 04:13:03;;;;;;;2.60;1.50;;;;;;;6.43;100.00;98146.63;6100421;19;20526;-74
2023/11/08 04:15:04;;;;;;;1.33;1.20;;;;;;;6.43;100.00;98156.81;6099587;19;19998;-74
2023/11/08 04:17:04;;;;;;;2.03;1.30;;;;;;;6.51;100.00;98153.09;6101152;19;20032;-74
2023/11/08 04:19:05;;;;;;;4.93;1.45;;;;;;;6.64;100.00;98153.78;6100107;19;20002;-74
2023/11/08 04:21:06;;;;;;;3.65;1.30;;;;;;;6.68;100.00;98144.44;6098388;19;20002;-74
2023/11/08 04:23:06;;;;;;;5.35;1.52;;;;;;;6.63;100.00;98141.19;6104221;19;19999;-74
2023/11/08 04:25:07;;;;;;;2.65;1.23;;;;;;;6.71;100.00;98149.22;6111017;19;20429;-74
2023/11/08 04:27:10;;;;;;;1.58;1.30;;;;;;;6.65;100.00;98156.16;6112367;19;20010;-74
2023/11/08 04:29:10;;;;;;;2.30;1.20;;;;;;;6.64;100.00;98159.28;6111749;19;20107;-74
2023/11/08 04:31:11;;;;;;;2.13;1.50;;;;;;;6.66;100.00;98162.44;6111819;19;20086;-74
2023/11/08 04:33:11;;;;;;;4.18;1.42;;;;;;;6.60;100.00;98145.44;6111602;19;20006;-74
2023/11/08 04:35:11;;;;;;;3.45;1.40;;;;;;;6.60;100.00;98145.44;6110815;19;20510;-74
2023/11/08 04:37:12;;;;;;;3.95;1.20;;;;;;;6.65;100.00;98147.91;6110306;19;19999;-74
2023/11/08 04:39:15;;;;;;;1.85;1.48;;;;;;;6.67;100.00;98151.09;6112781;19;20023;-74
2023/11/08 04:41:17;;;;;;;2.92;1.40;;;;;;;6.75;100.00;98152.03;6111212;19;20002;-74
2023/11/08 04:43:17;;;;;;;2.28;1.30;;;;;;;6.73;100.00;98157.91;6111776;19;20019;-74
2023/11/08 04:45:18;;;;;;;1.88;1.40;;;;;;;6.70;100.00;98158.63;6111523;19;19999;-74
2023/11/08 04:47:18;;;;;;;3.92;1.40;;;;;;;6.68;100.00;98152.66;6111996;19;20058;-74
2023/11/08 04:49:18;;;;;;;7.18;1.65;;;;;;;6.66;100.00;98154.19;6110776;19;20003;-74
2023/11/08 04:51:19;;;;;;;2.22;1.40;;;;;;;6.65;100.00;98153.41;6111772;19;19999;-74
2023/11/08 04:53:19;;;;;;;2.20;1.27;;;;;;;6.63;100.00;98160.44;6111247;19;20022;-74
2023/11/08 04:55:20;;;;;;;4.57;1.42;;;;;;;6.69;100.00;98150.72;6109908;19;20007;-74
2023/11/08 04:57:20;;;;;;;2.50;1.10;;;;;;;6.70;100.00;98157.81;6111047;19;20499;-74
2023/11/08 04:59:21;;;;;;;1.67;1.50;;;;;;;6.67;100.00;98161.28;6110791;19;20469;-74
2023/11/08 05:01:21;;;;;;;4.70;1.35;;;;;;;6.69;100.00;98164.47;6111154;19;20350;-74
2023/11/08 05:03:22;;;;;;;2.80;2.20;;;;;;;6.64;100.00;98165.56;6110940;19;20017;-74
2023/11/08 05:05:23;;;;;;;1.90;1.20;;;;;;;6.66;100.00;98156.94;6109780;19;20287;-74
2023/11/08 05:07:23;;;;;;;4.18;1.50;;;;;;;6.67;100.00;98169.53;6111647;19;20015;-74
2023/11/08 05:09:23;;;;;;;1.50;1.40;;;;;;;6.69;100.00;98164.47;6109075;19;20595;-74
2023/11/08 05:11:25;;;;;;;2.42;1.35;;;;;;;6.68;100.00;98165.63;6111104;19;20327;-74
2023/11/08 05:13:25;;;;;;;3.10;1.20;;;;;;;6.70;100.00;98166.88;6111663;19;20077;-74
2023/11/08 05:15:26;;;;;;;2.42;1.42;;;;;;;6.68;100.00;98174.66;6109200;19;20007;-75
2023/11/08 05:17:26;;;;;;;2.08;1.38;;;;;;;6.75;100.00;98177.56;6110638;19;20580;-74
2023/11/08 05:19:27;;;;;;;3.08;1.48;;;;;;;6.74;100.00;98175.19;6109267;19;20682;-74
2023/11/08 05:21:27;;;;;;;3.33;1.50;;;;;;;6.69;100.00;98165.25;6110794;19;20505;-74
2023/11/08 05:23:27;;;;;;;3.20;1.88;;;;;;;6.75;100.00;98172.06;6109358;19;20007;-74
2023/11/08 05:25:29;;;;;;;5.55;1.58;;;;;;;6.72;100.00;98183.00;6109338;19;20336;-74
2023/11/08 05:27:29;;;;;;;2.05;1.35;;;;;;;6.74;100.00;98175.19;6110336;19;20033;-74
2023/11/08 05:29:31;;;;;;;1.65;1.48;;;;;;;6.79;100.00;98172.16;6107930;19;20012;-74
2023/11/08 05:31:33;;;;;;;3.25;1.58;;;;;;;6.73;100.00;98168.91;6109717;19;20002;-74
2023/11/08 05:33:34;;;;;;;1.70;1.20;;;;;;;6.76;100.00;98173.66;6109191;19;20517;-74
2023/11/08 05:35:36;;;;;;;3.67;1.40;;;;;;;6.74;100.00;98176.00;6100101;19;20393;-74
2023/11/08 05:37:37;;;;;;;4.65;1.65;;;;;;;6.72;100.00;98181.06;6101518;19;20011;-74
2023/11/08 05:39:40;;;;;;;1.90;1.30;;;;;;;6.68;100.00;98179.38;6102638;19;20006;-74
2023/11/08 05:41:40;;;;;;;3.10;1.40;;;;;;;6.67;100.00;98177.78;6102626;19;21089;-74
2023/11/08 05:43:40;;;;;;;3.03;1.80;;;;;;;6.75;100.00;98185.81;6103851;19;20003;-74
2023/11/08 05:45:40;;;;;;;4.05;1.60;;;;;;;6.76;100.00;98184.66;6101526;19;20003;-74
2023/11/08 05:47:44;;;;;;;4.07;1.40;;;;;;;6.78;100.00;98191.75;6094030;19;20006;-74
2023/11/08 05:49:44;;;;;;;2.53;1.55;;;;;;;6.78;100.00;98191.75;6098696;19;20028;-74
2023/11/08 05:51:44;;;;;;;3.28;1.50;;;;;;;6.75;100.00;98185.81;6102038;19;20007;-74
2023/11/08 05:53:45;;;;;;;2.22;1.40;;;;;;;6.73;100.00;98188.13;6103798;19;20030;-74
2023/11/08 05:55:45;;;;;;;6.32;1.85;;;;;;;6.74;100.00;98197.97;6102379;19;20110;-74
2023/11/08 05:57:45;;;;;;;6.45;1.50;;;;;;;6.74;100.00;98186.97;6101297;19;20007;-74
2023/11/08 05:59:46;;;;;;;3.72;1.40;;;;;;;6.76;100.00;98183.88;6101078;19;20019;-74
2023/11/08 06:01:46;;;;;;;2.28;1.65;;;;;;;6.76;100.00;98181.13;6100347;19;20013;-74
2023/11/08 06:03:47;;;;;;;4.80;1.80;;;;;;;6.73;100.00;98195.59;6104250;19;20022;-75
2023/11/08 06:05:47;;;;;;;1.80;1.35;;;;;;;6.79;100.00;98194.16;6100454;19;20010;-74
2023/11/08 06:07:47;;;;;;;2.38;1.48;;;;;;;6.79;100.00;98198.88;6102434;19;20013;-74
2023/11/08 06:09:50;;;;;;;2.67;1.55;;;;;;;6.74;100.00;98205.44;6099473;19;20021;-74
2023/11/08 06:11:50;;;;;;;3.88;1.60;;;;;;;6.74;100.00;98199.94;6097816;19;20550;-74
2023/11/08 06:13:50;;;;;;;4.45;1.48;;;;;;;6.78;100.00;98213.75;6099423;19;20007;-74
2023/11/08 06:15:50;;;;;;;3.45;1.50;;;;;;;6.79;100.00;98207.91;6101024;19;20006;-74
2023/11/08 06:17:52;;;;;;;2.47;2.05;;;;;;;6.84;100.00;98198.56;6101422;19;20086;-74
2023/11/08 06:19:53;;;;;;;2.43;1.57;;;;;;;6.75;100.00;98198.78;6103159;19;20462;-74
2023/11/08 06:21:53;;;;;;;5.03;2.03;;;;;;;6.72;100.00;98205.81;6098515;19;20017;-74
2023/11/08 06:23:53;;;;;;;2.67;1.70;;;;;;;6.72;100.00;98205.81;6102209;19;20057;-74
2023/11/08 06:25:54;;;;;;;5.78;1.85;;;;;;;6.68;100.00;98212.34;6101175;19;20022;-74
2023/11/08 06:27:54;;;;;;;3.35;1.75;;;;;;;6.69;100.00;98209.25;6094174;19;20040;-74
2023/11/08 06:29:55;;;;;;;2.47;1.80;;;;;;;6.70;100.00;98218.28;6103368;19;20031;-74
2023/11/08 06:31:56;;;;;;;4.50;1.77;;;;;;;6.75;100.00;98218.81;6102067;19;20010;-74
2023/11/08 06:33:56;;;;;;;2.38;1.58;;;;;;;6.79;100.00;98220.88;6102806;19;20040;-74
2023/11/08 06:35:58;;;;;;;3.47;1.40;;;;;;;6.75;100.00;98224.31;6101487;19;20447;-74
2023/11/08 06:37:59;;;;;;;2.30;1.42;;;;;;;6.72;100.00;98230.53;6102056;19;20009;-74
2023/11/08 06:39:59;;;;;;;5.32;1.70;;;;;;;6.70;100.00;98226.53;6102689;19;20011;-74
2023/11/08 06:42:00;;;;;;;4.88;1.60;;;;;;;6.70;100.00;98232.88;6101891;19;19999;-74
2023/11/08 06:44:00;;;;;;;2.85;1.75;;;;;;;6.74;100.00;98241.97;6100740;19;20027;-74
2023/11/08 06:46:01;;;;;;;2.17;1.58;;;;;;;6.70;100.00;98232.88;6098906;19;20014;-73
2023/11/08 06:48:01;;;;;;;2.10;1.40;;;;;;;6.68;100.00;98232.41;6099310;19;20934;-74
2023/11/08 06:50:02;;;;;;;4.13;1.95;;;;;;;6.69;100.00;98231.25;6100218;19;20432;-74
2023/11/08 06:52:03;;;;;;;3.90;1.83;;;;;;;6.70;100.00;98226.53;6100908;19;20287;-74
2023/11/08 06:54:04;;;;;;;3.92;1.42;;;;;;;6.67;100.00;98230.81;6100500;19;20002;-74
2023/11/08 06:56:04;;;;;;;5.15;1.73;;;;;;;6.71;100.00;98236.41;6099622;19;20002;-74
2023/11/08 06:58:07;;;;;;;4.35;1.83;;;;;;;6.67;100.00;98239.06;6100596;19;19991;-74
2023/11/08 07:00:10;;;;;;;;;;;;;;;6.66;100.00;98247.66;6101720;19;20006;-74
2023/11/08 07:02:11;;;;;;;2.80;1.67;;;;;;;6.61;100.00;98254.22;6100980;19;19906;-74
2023/11/08 07:04:12;;;;;;;3.05;1.80;;;;;;;6.69;100.00;98255.19;6101860;19;20005;-74
2023/11/08 07:06:14;;;;;;;2.20;1.80;;;;;;;6.69;100.00;98249.69;6101369;19;20002;-74
2023/11/08 07:08:14;;;;;;;3.28;1.60;;;;;;;6.75;100.00;98270.25;6101162;19;20002;-74
2023/11/08 07:10:15;;;;;;;4.63;1.92;;;;;;;6.79;100.00;98262.13;6101781;19;20007;-74
2023/11/08 07:12:16;;;;;;;2.75;1.50;;;;;;;6.80;100.00;98261.75;6101271;19;20002;-74
2023/11/08 07:14:16;;;;;;;2.25;1.58;;;;;;;6.77;100.00;98267.94;6101608;19;19997;-74
2023/11/08 07:16:18;;;;;;;3.75;1.75;;;;;;;6.76;100.00;98272.66;6099425;19;19998;-74
2023/11/08 07:18:18;;;;;;;2.47;1.60;;;;;;;6.78;100.00;98280.53;6102307;19;20002;-74
2023/11/08 07:20:18;;;;;;;2.50;1.58;;;;;;;6.76;100.00;98275.41;6101676;19;20001;-74
2023/11/08 07:22:19;;;;;;;3.28;1.75;;;;;;;6.79;100.00;98278.63;6101457;19;20061;-74
2023/11/08 07:24:19;;;;;;;5.25;1.60;;;;;;;6.81;100.00;98284.53;6102058;19;20362;-74
2023/11/08 07:26:21;;;;;;;3.67;1.63;;;;;;;6.86;100.00;98292.50;6100847;19;20008;-74
2023/11/08 07:28:21;;;;;;;5.95;2.10;;;;;;;6.88;100.00;98285.50;6099706;19;20054;-74
2023/11/08 07:30:22;;;;;;;3.83;1.63;;;;;;;6.99;100.00;98286.53;6093827;19;20054;-74
2023/11/08 07:32:22;;;;;;;3.80;1.80;;;;;;;7.02;100.00;98298.75;6094399;19;20029;-74
2023/11/08 07:34:22;;;;;;;4.88;1.52;;;;;;;7.08;100.00;98291.84;6094895;19;20239;-74
2023/11/08 07:36:24;;;;;;;2.58;1.60;;;;;;;7.08;100.00;98291.84;6093379;19;20037;-74
2023/11/08 07:38:24;;;;;;;3.47;1.70;;;;;;;7.10;100.00;98292.25;6094946;19;20010;-74
2023/11/08 07:40:25;;;;;;;2.00;1.50;;;;;;;7.07;100.00;98300.44;6095917;19;20006;-74
2023/11/08 07:42:26;;;;;;;4.30;1.75;;;;;;;7.03;100.00;98303.09;6093770;19;20293;-74
2023/11/08 07:44:29;;;;;;;3.30;1.60;;;;;;;7.03;100.00;98297.59;6093609;19;20026;-74
2023/11/08 07:46:29;;;;;;;3.20;1.70;;;;;;;7.02;100.00;98299.56;6093810;19;20402;-74
2023/11/08 07:48:29;;;;;;;3.67;1.70;;;;;;;7.00;100.00;98296.38;6095274;19;20010;-74
2023/11/08 07:50:30;;;;;;;3.88;1.60;;;;;;;6.95;100.00;98304.94;6094080;19;20014;-74
2023/11/08 07:52:30;;;;;;;3.20;1.60;;;;;;;6.95;100.00;98309.59;6094058;19;20010;-74
2023/11/08 07:54:34;;;;;;;2.65;1.58;;;;;;;6.94;100.00;98306.06;6093994;19;20006;-74
2023/11/08 07:56:35;;;;;;;3.20;1.60;;;;;;;6.95;100.00;98306.84;6093259;19;20014;-74
2023/11/08 07:58:35;;;;;;;1.50;1.30;;;;;;;6.96;100.00;98309.28;6091101;19;20611;-74
2023/11/08 08:00:36;;;;;;;3.90;1.77;;;;;;;7.04;100.00;98313.78;6093714;19;20628;-74
2023/11/08 08:02:36;;;;;;;2.28;1.48;;;;;;;7.09;100.00;98328.41;6093801;19;20002;-74
2023/11/08 08:04:36;;;;;;;6.20;1.58;;;;;;;7.06;100.00;98313.41;6093958;19;20006;-74
2023/11/08 08:06:37;;;;;;;3.85;1.67;;;;;;;7.05;100.00;98322.81;6092635;19;20006;-74
2023/11/08 08:08:37;;;;;;;4.70;2.13;;;;;;;7.04;100.00;98304.72;6094364;19;20006;-74
2023/11/08 08:10:38;;;;;;;3.97;1.85;;;;;;;7.11;100.00;98313.13;6094335;19;20026;-75
2023/11/08 08:12:39;;;;;;;3.10;1.55;;;;;;;7.19;100.00;98308.56;6093294;19;20021;-74
2023/11/08 08:14:40;;;;;;;7.72;1.80;;;;;;;7.21;100.00;98317.28;6093737;19;20410;-74
2023/11/08 08:16:41;;;;;;;3.92;1.75;;;;;;;7.26;100.00;98315.03;6092619;19;20529;-74
2023/11/08 08:18:45;;;;;;;2.75;1.48;;;;;;;7.31;100.00;98312.00;6093712;19;20002;-74
2023/11/08 08:20:46;;;;;;;3.75;1.60;;;;;;;7.38;100.00;98321.59;6091439;19;20030;-74
2023/11/08 08:22:47;;;;;;;7.45;2.17;;;;;;;7.43;100.00;98321.28;6093123;19;20003;-74
2023/11/08 08:24:48;;;;;;;1.98;1.40;;;;;;;7.44;100.00;98318.16;6094347;19;20011;-74
2023/11/08 08:26:48;;;;;;;3.50;1.65;;;;;;;7.53;100.00;98324.28;6093234;19;20035;-74
2023/11/08 08:28:49;;;;;;;2.75;1.55;;;;;;;7.57;100.00;98324.34;6096489;19;20010;-74
2023/11/08 08:30:49;;;;;;;2.40;1.30;;;;;;;7.55;100.00;98319.19;6101048;19;20593;-74
2023/11/08 08:32:50;;;;;;;5.72;1.65;;;;;;;7.64;100.00;98320.94;6100974;19;20010;-74
2023/11/08 08:34:51;;;;;;;2.83;1.52;;;;;;;7.65;100.00;98319.78;6099649;19;20066;-74
2023/11/08 08:36:52;;;;;;;6.03;1.70;;;;;;;7.64;100.00;98313.47;6099876;19;20006;-74
2023/11/08 08:38:52;;;;;;;3.58;1.40;;;;;;;7.73;100.00;98324.28;6099012;19;20013;-74
2023/11/08 08:40:52;;;;;;;2.78;1.17;;;;;;;7.82;100.00;98324.84;6100660;19;20007;-74
2023/11/08 08:42:53;;;;;;;1.58;1.35;;;;;;;7.95;100.00;98331.00;6099764;19;20479;-74
2023/11/08 08:44:53;;;;;;;2.85;1.60;;;;;;;7.98;100.00;98324.75;6100177;19;20111;-74
2023/11/08 08:46:54;;;;;;;3.13;1.10;;;;;;;8.00;100.00;98320.47;6099594;19;20021;-74
2023/11/08 08:48:54;;;;;;;2.45;1.55;;;;;;;7.93;100.00;98331.34;6100665;19;20459;-74
2023/11/08 08:50:55;;;;;;;4.95;1.48;;;;;;;7.98;100.00;98333.81;6100351;19;20466;-74
2023/11/08 08:52:55;;;;;;;5.95;1.33;;;;;;;8.09;100.00;98340.31;6101408;19;20010;-74
2023/11/08 08:54:55;;;;;;;3.50;1.27;;;;;;;8.11;100.00;98334.47;6098698;19;20323;-74
2023/11/08 08:56:58;;;;;;;4.05;1.10;;;;;;;8.12;100.00;98336.84;6098669;19;20300;-74
2023/11/08 08:58:58;;;;;;;;;;;;;;;8.22;100.00;98340.19;6101051;19;20007;-74
2023/11/08 09:00:59;;;;;;;3.20;1.30;;;;;;;8.18;100.00;98327.09;6100281;19;19974;-74
2023/11/08 09:03:00;;;;;;;2.35;1.30;;;;;;;8.23;100.00;98331.53;6098904;19;20535;-74
2023/11/08 09:05:00;;;;;;;2.78;1.48;;;;;;;8.16;100.00;98334.16;6098914;19;20007;-74
2023/11/08 09:07:02;;;;;;;3.75;1.38;;;;;;;8.22;100.00;98329.94;6099568;19;20015;-74
2023/11/08 09:09:03;;;;;;;2.47;1.45;;;;;;;8.22;100.00;98337.41;6101384;19;20010;-74
2023/11/08 09:11:03;;;;;;;5.00;1.60;;;;;;;8.20;100.00;98329.53;6104623;19;20041;-74
2023/11/08 09:13:03;;;;;;;3.67;1.45;;;;;;;8.25;100.00;98342.97;6105952;19;20019;-73
2023/11/08 09:15:05;;;;;;;1.70;1.20;;;;;;;8.28;100.00;98342.28;6103935;19;20023;-74
2023/11/08 09:17:05;;;;;;;4.47;1.23;;;;;;;8.31;100.00;98343.50;6105451;19;20019;-74
2023/11/08 09:19:08;;;;;;;3.63;1.48;;;;;;;8.36;100.00;98355.06;6105005;19;20011;-74
2023/11/08 09:21:08;;;;;;;1.35;1.10;;;;;;;8.39;100.00;98353.50;6106218;19;20339;-74
2023/11/08 09:23:09;;;;;;;1.33;1.13;;;;;;;8.38;100.00;98354.69;6104801;19;20014;-73
2023/11/08 09:25:10;;;;;;;1.65;1.10;;;;;;;8.36;100.00;98355.06;6103717;19;20313;-74
2023/11/08 09:27:11;;;;;;;2.13;1.10;;;;;;;8.40;100.00;98355.09;6104810;19;20566;-74
2023/11/08 09:29:14;;;;;;;2.53;1.35;;;;;;;8.38;100.00;98361.00;6105924;19;20006;-74